sensor_id;sensor_type;location;lat;lon;timestamp;P1;durP1;ratioP1;P2;durP2;ratioP2
14874;SDS011;7529;48.170;17.138;2022-12-07T00:01:31;29.17;;;27.48;;
14874;SDS011;7529;48.170;17.138;2022-12-07T00:05:49;29.38;;;27.67;;
14874;SDS011;7529;48.170;17.138;2022-12-07T00:10:01;31.02;;;29.23;;
14874;SDS011;7529;48.170;17.138;2022-12-07T00:14:14;33.78;;;31.60;;
14874;SDS011;7529;48.170;17.138;2022-12-07T00:18:26;21.42;;;19.92;;
14874;SDS011;7529;48.170;17.138;2022-12-07T00:22:37;30.98;;;29.15;;
14874;SDS011;7529;48.170;17.138;2022-12-07T00:26:49;27.58;;;25.90;;
14874;SDS011;7529;48.170;17.138;2022-12-07T00:31:01;28.95;;;26.75;;
14874;SDS011;7529;48.170;17.138;2022-12-07T00:35:14;32.60;;;30.58;;
14874;SDS011;7529;48.170;17.138;2022-12-07T00:39:26;30.42;;;28.55;;
14874;SDS011;7529;48.170;17.138;2022-12-07T00:43:38;30.13;;;28.48;;
14874;SDS011;7529;48.170;17.138;2022-12-07T00:47:50;33.05;;;31.17;;
14874;SDS011;7529;48.170;17.138;2022-12-07T00:52:01;31.55;;;29.73;;
14874;SDS011;7529;48.170;17.138;2022-12-07T00:56:17;31.98;;;30.20;;
14874;SDS011;7529;48.170;17.138;2022-12-07T01:00:30;38.67;;;36.58;;
14874;SDS011;7529;48.170;17.138;2022-12-07T01:04:43;32.28;;;30.50;;
14874;SDS011;7529;48.170;17.138;2022-12-07T01:08:55;30.00;;;28.27;;
14874;SDS011;7529;48.170;17.138;2022-12-07T01:13:07;29.90;;;28.05;;
14874;SDS011;7529;48.170;17.138;2022-12-07T01:17:18;29.05;;;27.27;;
14874;SDS011;7529;48.170;17.138;2022-12-07T01:21:31;28.35;;;26.45;;
14874;SDS011;7529;48.170;17.138;2022-12-07T01:25:53;25.88;;;24.20;;
14874;SDS011;7529;48.170;17.138;2022-12-07T01:30:06;25.90;;;24.27;;
14874;SDS011;7529;48.170;17.138;2022-12-07T01:34:18;24.77;;;23.00;;
14874;SDS011;7529;48.170;17.138;2022-12-07T01:38:30;22.58;;;21.17;;
14874;SDS011;7529;48.170;17.138;2022-12-07T01:42:41;24.52;;;22.88;;
14874;SDS011;7529;48.170;17.138;2022-12-07T01:46:57;21.33;;;19.92;;
14874;SDS011;7529;48.170;17.138;2022-12-07T01:51:11;23.77;;;22.00;;
14874;SDS011;7529;48.170;17.138;2022-12-07T01:55:23;28.30;;;26.48;;
14874;SDS011;7529;48.170;17.138;2022-12-07T01:59:35;30.45;;;28.45;;
14874;SDS011;7529;48.170;17.138;2022-12-07T02:03:47;27.92;;;26.20;;
14874;SDS011;7529;48.170;17.138;2022-12-07T02:07:59;32.55;;;30.48;;
14874;SDS011;7529;48.170;17.138;2022-12-07T02:12:12;32.05;;;29.88;;
14874;SDS011;7529;48.170;17.138;2022-12-07T02:30:26;38.42;;;35.72;;
14874;SDS011;7529;48.170;17.138;2022-12-07T02:34:34;37.45;;;34.95;;
14874;SDS011;7529;48.170;17.138;2022-12-07T02:38:54;38.97;;;36.40;;
14874;SDS011;7529;48.170;17.138;2022-12-07T02:43:23;43.05;;;39.97;;
14874;SDS011;7529;48.170;17.138;2022-12-07T02:47:39;48.50;;;45.40;;
14874;SDS011;7529;48.170;17.138;2022-12-07T02:51:51;45.60;;;42.63;;
14874;SDS011;7529;48.170;17.138;2022-12-07T02:56:15;51.58;;;48.25;;
14874;SDS011;7529;48.170;17.138;2022-12-07T03:00:31;50.72;;;47.75;;
14874;SDS011;7529;48.170;17.138;2022-12-07T03:04:52;58.30;;;55.00;;
14874;SDS011;7529;48.170;17.138;2022-12-07T03:09:34;50.85;;;47.65;;
14874;SDS011;7529;48.170;17.138;2022-12-07T03:14:02;44.72;;;41.67;;
14874;SDS011;7529;48.170;17.138;2022-12-07T03:18:22;45.10;;;42.33;;
14874;SDS011;7529;48.170;17.138;2022-12-07T03:22:36;38.85;;;35.95;;
14874;SDS011;7529;48.170;17.138;2022-12-07T03:26:51;38.75;;;36.03;;
14874;SDS011;7529;48.170;17.138;2022-12-07T03:31:35;41.22;;;38.42;;
14874;SDS011;7529;48.170;17.138;2022-12-07T03:35:50;38.67;;;35.90;;
14874;SDS011;7529;48.170;17.138;2022-12-07T03:44:45;40.13;;;37.25;;
14874;SDS011;7529;48.170;17.138;2022-12-07T03:53:37;36.80;;;34.30;;
14874;SDS011;7529;48.170;17.138;2022-12-07T03:57:53;40.83;;;38.10;;
14874;SDS011;7529;48.170;17.138;2022-12-07T04:02:07;40.75;;;37.95;;
14874;SDS011;7529;48.170;17.138;2022-12-07T04:06:19;40.42;;;37.40;;
14874;SDS011;7529;48.170;17.138;2022-12-07T04:10:30;38.30;;;35.58;;
14874;SDS011;7529;48.170;17.138;2022-12-07T04:14:42;38.03;;;35.42;;
14874;SDS011;7529;48.170;17.138;2022-12-07T04:18:53;41.13;;;38.30;;
14874;SDS011;7529;48.170;17.138;2022-12-07T04:23:05;39.03;;;36.47;;
14874;SDS011;7529;48.170;17.138;2022-12-07T04:27:17;40.33;;;37.13;;
14874;SDS011;7529;48.170;17.138;2022-12-07T04:31:28;39.50;;;36.55;;
14874;SDS011;7529;48.170;17.138;2022-12-07T04:35:41;37.20;;;34.55;;
14874;SDS011;7529;48.170;17.138;2022-12-07T04:39:54;40.92;;;37.90;;
14874;SDS011;7529;48.170;17.138;2022-12-07T04:44:06;32.35;;;29.98;;
14874;SDS011;7529;48.170;17.138;2022-12-07T04:48:18;38.58;;;35.90;;
14874;SDS011;7529;48.170;17.138;2022-12-07T04:52:29;38.35;;;35.65;;
14874;SDS011;7529;48.170;17.138;2022-12-07T04:56:41;40.95;;;38.28;;
14874;SDS011;7529;48.170;17.138;2022-12-07T05:00:54;38.78;;;36.15;;
14874;SDS011;7529;48.170;17.138;2022-12-07T05:05:05;42.10;;;39.40;;
14874;SDS011;7529;48.170;17.138;2022-12-07T05:09:17;40.35;;;37.70;;
14874;SDS011;7529;48.170;17.138;2022-12-07T05:13:29;42.70;;;39.83;;
14874;SDS011;7529;48.170;17.138;2022-12-07T05:17:41;36.83;;;34.33;;
14874;SDS011;7529;48.170;17.138;2022-12-07T05:21:53;45.13;;;42.15;;
14874;SDS011;7529;48.170;17.138;2022-12-07T05:26:04;45.33;;;42.03;;
14874;SDS011;7529;48.170;17.138;2022-12-07T05:30:16;39.20;;;36.65;;
14874;SDS011;7529;48.170;17.138;2022-12-07T05:34:28;39.38;;;36.80;;
14874;SDS011;7529;48.170;17.138;2022-12-07T05:38:40;17.50;;;16.23;;
14874;SDS011;7529;48.170;17.138;2022-12-07T05:42:52;35.13;;;32.72;;
14874;SDS011;7529;48.170;17.138;2022-12-07T05:47:06;15.45;;;14.35;;
14874;SDS011;7529;48.170;17.138;2022-12-07T05:51:18;28.13;;;26.15;;
14874;SDS011;7529;48.170;17.138;2022-12-07T05:55:30;25.98;;;24.17;;
14874;SDS011;7529;48.170;17.138;2022-12-07T05:59:41;16.35;;;15.15;;
14874;SDS011;7529;48.170;17.138;2022-12-07T06:03:53;27.33;;;25.52;;
14874;SDS011;7529;48.170;17.138;2022-12-07T06:08:04;18.15;;;16.85;;
14874;SDS011;7529;48.170;17.138;2022-12-07T06:12:16;28.42;;;26.48;;
14874;SDS011;7529;48.170;17.138;2022-12-07T06:16:48;17.83;;;16.52;;
14874;SDS011;7529;48.170;17.138;2022-12-07T06:21:00;27.08;;;25.10;;
14874;SDS011;7529;48.170;17.138;2022-12-07T06:25:11;31.80;;;29.42;;
14874;SDS011;7529;48.170;17.138;2022-12-07T06:29:23;30.63;;;28.25;;
14874;SDS011;7529;48.170;17.138;2022-12-07T06:33:35;35.70;;;33.08;;
14874;SDS011;7529;48.170;17.138;2022-12-07T06:37:46;20.63;;;19.30;;
14874;SDS011;7529;48.170;17.138;2022-12-07T06:41:58;18.25;;;16.85;;
14874;SDS011;7529;48.170;17.138;2022-12-07T06:46:10;17.45;;;16.02;;
14874;SDS011;7529;48.170;17.138;2022-12-07T06:50:21;22.60;;;20.92;;
14874;SDS011;7529;48.170;17.138;2022-12-07T06:54:34;13.95;;;13.07;;
14874;SDS011;7529;48.170;17.138;2022-12-07T06:58:46;14.38;;;13.48;;
14874;SDS011;7529;48.170;17.138;2022-12-07T07:03:00;13.60;;;12.57;;
14874;SDS011;7529;48.170;17.138;2022-12-07T07:07:12;13.30;;;12.50;;
14874;SDS011;7529;48.170;17.138;2022-12-07T07:11:23;13.85;;;12.95;;
14874;SDS011;7529;48.170;17.138;2022-12-07T07:15:36;17.35;;;16.23;;
14874;SDS011;7529;48.170;17.138;2022-12-07T07:19:48;13.82;;;12.90;;
14874;SDS011;7529;48.170;17.138;2022-12-07T07:24:00;13.55;;;12.55;;
14874;SDS011;7529;48.170;17.138;2022-12-07T07:28:12;14.02;;;13.13;;
14874;SDS011;7529;48.170;17.138;2022-12-07T07:32:23;14.20;;;13.13;;
14874;SDS011;7529;48.170;17.138;2022-12-07T07:36:35;14.57;;;13.38;;
14874;SDS011;7529;48.170;17.138;2022-12-07T07:40:47;14.13;;;13.27;;
14874;SDS011;7529;48.170;17.138;2022-12-07T07:44:59;12.52;;;11.70;;
14874;SDS011;7529;48.170;17.138;2022-12-07T07:49:11;14.13;;;13.02;;
14874;SDS011;7529;48.170;17.138;2022-12-07T07:53:22;12.95;;;12.20;;
14874;SDS011;7529;48.170;17.138;2022-12-07T07:57:34;14.25;;;13.35;;
14874;SDS011;7529;48.170;17.138;2022-12-07T08:01:46;13.48;;;12.48;;
14874;SDS011;7529;48.170;17.138;2022-12-07T08:05:58;14.52;;;13.52;;
14874;SDS011;7529;48.170;17.138;2022-12-07T08:10:10;14.02;;;13.07;;
14874;SDS011;7529;48.170;17.138;2022-12-07T08:14:23;13.13;;;12.32;;
14874;SDS011;7529;48.170;17.138;2022-12-07T08:18:38;13.10;;;12.30;;
14874;SDS011;7529;48.170;17.138;2022-12-07T08:22:50;13.98;;;12.90;;
14874;SDS011;7529;48.170;17.138;2022-12-07T08:27:02;15.95;;;14.75;;
14874;SDS011;7529;48.170;17.138;2022-12-07T08:31:15;14.18;;;13.18;;
14874;SDS011;7529;48.170;17.138;2022-12-07T08:35:28;14.57;;;13.48;;
14874;SDS011;7529;48.170;17.138;2022-12-07T08:39:39;14.30;;;13.25;;
14874;SDS011;7529;48.170;17.138;2022-12-07T08:43:51;14.80;;;13.80;;
14874;SDS011;7529;48.170;17.138;2022-12-07T08:48:04;14.20;;;13.13;;
14874;SDS011;7529;48.170;17.138;2022-12-07T08:52:18;14.73;;;13.75;;
14874;SDS011;7529;48.170;17.138;2022-12-07T08:56:30;13.20;;;12.20;;
14874;SDS011;7529;48.170;17.138;2022-12-07T09:00:41;13.27;;;12.32;;
14874;SDS011;7529;48.170;17.138;2022-12-07T09:04:53;13.05;;;12.05;;
14874;SDS011;7529;48.170;17.138;2022-12-07T09:09:05;14.23;;;13.13;;
14874;SDS011;7529;48.170;17.138;2022-12-07T09:13:17;13.05;;;12.02;;
14874;SDS011;7529;48.170;17.138;2022-12-07T09:17:31;13.77;;;12.60;;
14874;SDS011;7529;48.170;17.138;2022-12-07T09:21:43;13.35;;;12.45;;
14874;SDS011;7529;48.170;17.138;2022-12-07T09:25:58;13.13;;;12.13;;
14874;SDS011;7529;48.170;17.138;2022-12-07T09:30:11;12.32;;;11.52;;
14874;SDS011;7529;48.170;17.138;2022-12-07T09:34:23;12.18;;;11.38;;
14874;SDS011;7529;48.170;17.138;2022-12-07T09:38:36;11.80;;;11.05;;
14874;SDS011;7529;48.170;17.138;2022-12-07T09:42:49;12.15;;;11.35;;
14874;SDS011;7529;48.170;17.138;2022-12-07T09:47:02;10.20;;;9.63;;
14874;SDS011;7529;48.170;17.138;2022-12-07T09:51:16;11.10;;;10.30;;
14874;SDS011;7529;48.170;17.138;2022-12-07T09:55:29;9.10;;;8.50;;
14874;SDS011;7529;48.170;17.138;2022-12-07T09:59:42;9.88;;;9.15;;
14874;SDS011;7529;48.170;17.138;2022-12-07T10:04:27;9.70;;;8.90;;
14874;SDS011;7529;48.170;17.138;2022-12-07T10:08:33;9.00;;;8.15;;
14874;SDS011;7529;48.170;17.138;2022-12-07T10:12:59;9.60;;;8.85;;
14874;SDS011;7529;48.170;17.138;2022-12-07T10:31:02;11.38;;;10.45;;
14874;SDS011;7529;48.170;17.138;2022-12-07T10:35:28;9.88;;;9.38;;
14874;SDS011;7529;48.170;17.138;2022-12-07T10:39:44;9.95;;;9.35;;
14874;SDS011;7529;48.170;17.138;2022-12-07T10:44:00;10.25;;;9.75;;
14874;SDS011;7529;48.170;17.138;2022-12-07T11:02:20;9.23;;;8.73;;
14874;SDS011;7529;48.170;17.138;2022-12-07T11:10:55;9.38;;;8.93;;
14874;SDS011;7529;48.170;17.138;2022-12-07T11:37:54;8.60;;;8.10;;
14874;SDS011;7529;48.170;17.138;2022-12-07T11:42:09;10.20;;;9.30;;
14874;SDS011;7529;48.170;17.138;2022-12-07T11:46:36;12.98;;;9.23;;
14874;SDS011;7529;48.170;17.138;2022-12-07T11:51:01;9.35;;;8.85;;
14874;SDS011;7529;48.170;17.138;2022-12-07T11:55:26;8.38;;;7.97;;
14874;SDS011;7529;48.170;17.138;2022-12-07T11:59:59;9.43;;;8.93;;
14874;SDS011;7529;48.170;17.138;2022-12-07T12:04:22;8.88;;;8.48;;
14874;SDS011;7529;48.170;17.138;2022-12-07T12:13:41;9.60;;;8.90;;
14874;SDS011;7529;48.170;17.138;2022-12-07T12:22:38;9.70;;;9.20;;
14874;SDS011;7529;48.170;17.138;2022-12-07T12:27:24;10.07;;;9.55;;
14874;SDS011;7529;48.170;17.138;2022-12-07T12:31:41;9.77;;;9.27;;
14874;SDS011;7529;48.170;17.138;2022-12-07T12:40:50;11.30;;;10.55;;
14874;SDS011;7529;48.170;17.138;2022-12-07T12:45:04;10.25;;;9.75;;
14874;SDS011;7529;48.170;17.138;2022-12-07T12:53:39;10.63;;;10.05;;
14874;SDS011;7529;48.170;17.138;2022-12-07T13:02:35;10.05;;;9.65;;
14874;SDS011;7529;48.170;17.138;2022-12-07T13:06:48;10.15;;;9.65;;
14874;SDS011;7529;48.170;17.138;2022-12-07T13:11:20;15.82;;;15.13;;
14874;SDS011;7529;48.170;17.138;2022-12-07T13:15:44;10.70;;;10.20;;
14874;SDS011;7529;48.170;17.138;2022-12-07T13:20:00;9.68;;;9.27;;
14874;SDS011;7529;48.170;17.138;2022-12-07T13:24:12;11.50;;;10.57;;
14874;SDS011;7529;48.170;17.138;2022-12-07T13:28:25;8.88;;;8.48;;
14874;SDS011;7529;48.170;17.138;2022-12-07T13:32:43;12.50;;;11.90;;
14874;SDS011;7529;48.170;17.138;2022-12-07T13:37:12;10.20;;;9.50;;
14874;SDS011;7529;48.170;17.138;2022-12-07T13:41:35;15.45;;;14.65;;
14874;SDS011;7529;48.170;17.138;2022-12-07T13:45:46;15.40;;;14.35;;
14874;SDS011;7529;48.170;17.138;2022-12-07T13:50:25;8.95;;;8.55;;
14874;SDS011;7529;48.170;17.138;2022-12-07T13:54:45;15.15;;;14.35;;
14874;SDS011;7529;48.170;17.138;2022-12-07T13:58:59;19.25;;;18.25;;
14874;SDS011;7529;48.170;17.138;2022-12-07T14:07:24;9.95;;;9.38;;
14874;SDS011;7529;48.170;17.138;2022-12-07T14:11:36;8.68;;;8.27;;
14874;SDS011;7529;48.170;17.138;2022-12-07T14:15:52;8.90;;;8.45;;
14874;SDS011;7529;48.170;17.138;2022-12-07T14:20:04;9.93;;;9.35;;
14874;SDS011;7529;48.170;17.138;2022-12-07T14:24:42;11.02;;;10.52;;
14874;SDS011;7529;48.170;17.138;2022-12-07T14:29:18;14.77;;;13.98;;
14874;SDS011;7529;48.170;17.138;2022-12-07T14:33:29;11.30;;;8.70;;
14874;SDS011;7529;48.170;17.138;2022-12-07T14:37:42;9.50;;;9.07;;
14874;SDS011;7529;48.170;17.138;2022-12-07T14:41:55;11.02;;;10.38;;
14874;SDS011;7529;48.170;17.138;2022-12-07T14:46:06;8.48;;;8.13;;
14874;SDS011;7529;48.170;17.138;2022-12-07T14:50:19;10.68;;;10.00;;
14874;SDS011;7529;48.170;17.138;2022-12-07T14:54:32;9.80;;;9.20;;
14874;SDS011;7529;48.170;17.138;2022-12-07T14:58:44;10.25;;;9.65;;
14874;SDS011;7529;48.170;17.138;2022-12-07T15:02:58;8.90;;;8.35;;
14874;SDS011;7529;48.170;17.138;2022-12-07T15:07:12;11.90;;;11.20;;
14874;SDS011;7529;48.170;17.138;2022-12-07T15:11:29;13.48;;;12.68;;
14874;SDS011;7529;48.170;17.138;2022-12-07T15:15:40;13.95;;;13.15;;
14874;SDS011;7529;48.170;17.138;2022-12-07T15:19:52;14.88;;;13.88;;
14874;SDS011;7529;48.170;17.138;2022-12-07T15:24:03;14.00;;;13.00;;
14874;SDS011;7529;48.170;17.138;2022-12-07T15:28:16;13.32;;;12.43;;
14874;SDS011;7529;48.170;17.138;2022-12-07T15:32:27;15.43;;;14.32;;
14874;SDS011;7529;48.170;17.138;2022-12-07T15:36:39;14.77;;;13.63;;
14874;SDS011;7529;48.170;17.138;2022-12-07T15:40:51;16.80;;;15.70;;
14874;SDS011;7529;48.170;17.138;2022-12-07T15:45:03;15.65;;;14.60;;
14874;SDS011;7529;48.170;17.138;2022-12-07T15:49:17;14.70;;;13.43;;
14874;SDS011;7529;48.170;17.138;2022-12-07T15:53:29;14.02;;;12.93;;
14874;SDS011;7529;48.170;17.138;2022-12-07T15:57:42;14.05;;;13.00;;
14874;SDS011;7529;48.170;17.138;2022-12-07T16:01:54;14.38;;;13.35;;
14874;SDS011;7529;48.170;17.138;2022-12-07T16:06:05;14.65;;;13.70;;
14874;SDS011;7529;48.170;17.138;2022-12-07T16:10:17;14.75;;;13.55;;
14874;SDS011;7529;48.170;17.138;2022-12-07T16:14:29;14.77;;;13.60;;
14874;SDS011;7529;48.170;17.138;2022-12-07T16:18:42;13.60;;;12.45;;
14874;SDS011;7529;48.170;17.138;2022-12-07T16:22:55;14.77;;;13.73;;
14874;SDS011;7529;48.170;17.138;2022-12-07T16:27:06;13.85;;;12.85;;
14874;SDS011;7529;48.170;17.138;2022-12-07T16:31:19;14.50;;;13.38;;
14874;SDS011;7529;48.170;17.138;2022-12-07T16:35:32;14.63;;;13.32;;
14874;SDS011;7529;48.170;17.138;2022-12-07T16:39:43;14.95;;;13.85;;
14874;SDS011;7529;48.170;17.138;2022-12-07T16:43:55;13.93;;;12.93;;
14874;SDS011;7529;48.170;17.138;2022-12-07T16:48:07;14.27;;;13.27;;
14874;SDS011;7529;48.170;17.138;2022-12-07T16:52:19;14.55;;;13.55;;
14874;SDS011;7529;48.170;17.138;2022-12-07T16:56:31;14.40;;;13.30;;
14874;SDS011;7529;48.170;17.138;2022-12-07T17:00:42;14.23;;;13.23;;
14874;SDS011;7529;48.170;17.138;2022-12-07T17:04:55;15.15;;;13.98;;
14874;SDS011;7529;48.170;17.138;2022-12-07T17:09:07;15.23;;;14.15;;
14874;SDS011;7529;48.170;17.138;2022-12-07T17:13:20;14.30;;;13.40;;
14874;SDS011;7529;48.170;17.138;2022-12-07T17:17:54;16.88;;;15.55;;
14874;SDS011;7529;48.170;17.138;2022-12-07T17:22:07;16.73;;;15.50;;
14874;SDS011;7529;48.170;17.138;2022-12-07T17:26:23;13.65;;;12.55;;
14874;SDS011;7529;48.170;17.138;2022-12-07T17:30:35;14.98;;;13.85;;
14874;SDS011;7529;48.170;17.138;2022-12-07T17:34:47;14.82;;;13.63;;
14874;SDS011;7529;48.170;17.138;2022-12-07T17:38:59;14.48;;;13.43;;
14874;SDS011;7529;48.170;17.138;2022-12-07T17:43:12;15.05;;;13.98;;
14874;SDS011;7529;48.170;17.138;2022-12-07T17:47:24;16.70;;;15.30;;
14874;SDS011;7529;48.170;17.138;2022-12-07T17:51:36;16.92;;;15.52;;
14874;SDS011;7529;48.170;17.138;2022-12-07T17:56:06;15.95;;;14.70;;
14874;SDS011;7529;48.170;17.138;2022-12-07T18:00:18;16.10;;;14.80;;
14874;SDS011;7529;48.170;17.138;2022-12-07T18:04:29;16.58;;;15.38;;
14874;SDS011;7529;48.170;17.138;2022-12-07T18:08:41;15.15;;;13.85;;
14874;SDS011;7529;48.170;17.138;2022-12-07T18:12:53;15.23;;;14.20;;
14874;SDS011;7529;48.170;17.138;2022-12-07T18:17:24;15.43;;;13.98;;
14874;SDS011;7529;48.170;17.138;2022-12-07T18:21:36;16.10;;;14.90;;
14874;SDS011;7529;48.170;17.138;2022-12-07T18:25:48;15.10;;;14.00;;
14874;SDS011;7529;48.170;17.138;2022-12-07T18:30:00;14.85;;;13.75;;
14874;SDS011;7529;48.170;17.138;2022-12-07T18:34:12;15.95;;;14.73;;
14874;SDS011;7529;48.170;17.138;2022-12-07T18:38:28;15.57;;;14.43;;
14874;SDS011;7529;48.170;17.138;2022-12-07T18:42:40;15.30;;;14.25;;
14874;SDS011;7529;48.170;17.138;2022-12-07T18:46:51;16.48;;;15.18;;
14874;SDS011;7529;48.170;17.138;2022-12-07T18:51:03;16.77;;;15.52;;
14874;SDS011;7529;48.170;17.138;2022-12-07T18:55:16;15.82;;;14.63;;
14874;SDS011;7529;48.170;17.138;2022-12-07T18:59:27;15.60;;;14.38;;
14874;SDS011;7529;48.170;17.138;2022-12-07T19:03:58;16.52;;;15.32;;
14874;SDS011;7529;48.170;17.138;2022-12-07T19:08:10;15.95;;;14.82;;
14874;SDS011;7529;48.170;17.138;2022-12-07T19:12:21;16.73;;;15.27;;
14874;SDS011;7529;48.170;17.138;2022-12-07T19:16:33;16.55;;;15.35;;
14874;SDS011;7529;48.170;17.138;2022-12-07T19:20:45;17.13;;;15.73;;
14874;SDS011;7529;48.170;17.138;2022-12-07T19:24:57;14.65;;;13.48;;
14874;SDS011;7529;48.170;17.138;2022-12-07T19:29:08;16.38;;;15.18;;
14874;SDS011;7529;48.170;17.138;2022-12-07T19:33:20;17.08;;;15.77;;
14874;SDS011;7529;48.170;17.138;2022-12-07T19:37:31;17.48;;;16.10;;
14874;SDS011;7529;48.170;17.138;2022-12-07T19:41:43;15.77;;;14.40;;
14874;SDS011;7529;48.170;17.138;2022-12-07T19:45:55;15.55;;;14.30;;
14874;SDS011;7529;48.170;17.138;2022-12-07T19:50:07;16.65;;;15.45;;
14874;SDS011;7529;48.170;17.138;2022-12-07T19:54:20;16.42;;;15.05;;
14874;SDS011;7529;48.170;17.138;2022-12-07T19:58:32;15.57;;;14.38;;
14874;SDS011;7529;48.170;17.138;2022-12-07T20:02:44;15.20;;;13.98;;
14874;SDS011;7529;48.170;17.138;2022-12-07T20:06:56;15.25;;;14.05;;
14874;SDS011;7529;48.170;17.138;2022-12-07T20:11:09;17.23;;;15.88;;
14874;SDS011;7529;48.170;17.138;2022-12-07T20:15:40;17.10;;;15.38;;
14874;SDS011;7529;48.170;17.138;2022-12-07T20:19:51;14.00;;;13.00;;
14874;SDS011;7529;48.170;17.138;2022-12-07T20:24:03;13.60;;;12.48;;
14874;SDS011;7529;48.170;17.138;2022-12-07T20:28:16;15.38;;;14.18;;
14874;SDS011;7529;48.170;17.138;2022-12-07T20:32:27;15.75;;;14.48;;
14874;SDS011;7529;48.170;17.138;2022-12-07T20:36:39;16.23;;;15.02;;
14874;SDS011;7529;48.170;17.138;2022-12-07T20:40:51;15.32;;;13.98;;
14874;SDS011;7529;48.170;17.138;2022-12-07T20:45:04;15.07;;;13.80;;
14874;SDS011;7529;48.170;17.138;2022-12-07T20:49:18;14.95;;;13.82;;
14874;SDS011;7529;48.170;17.138;2022-12-07T20:53:30;16.63;;;15.23;;
14874;SDS011;7529;48.170;17.138;2022-12-07T20:57:42;15.05;;;13.77;;
14874;SDS011;7529;48.170;17.138;2022-12-07T21:01:53;14.82;;;13.52;;
14874;SDS011;7529;48.170;17.138;2022-12-07T21:06:05;16.67;;;15.27;;
14874;SDS011;7529;48.170;17.138;2022-12-07T21:10:17;14.57;;;13.40;;
14874;SDS011;7529;48.170;17.138;2022-12-07T21:14:28;16.77;;;15.48;;
14874;SDS011;7529;48.170;17.138;2022-12-07T21:18:40;16.95;;;15.35;;
14874;SDS011;7529;48.170;17.138;2022-12-07T21:22:54;16.05;;;14.80;;
14874;SDS011;7529;48.170;17.138;2022-12-07T21:27:06;17.45;;;16.25;;
14874;SDS011;7529;48.170;17.138;2022-12-07T21:31:18;15.40;;;14.25;;
14874;SDS011;7529;48.170;17.138;2022-12-07T21:35:30;14.30;;;13.30;;
14874;SDS011;7529;48.170;17.138;2022-12-07T21:39:41;15.23;;;13.90;;
14874;SDS011;7529;48.170;17.138;2022-12-07T21:43:53;15.80;;;13.95;;
14874;SDS011;7529;48.170;17.138;2022-12-07T21:48:05;15.45;;;14.25;;
14874;SDS011;7529;48.170;17.138;2022-12-07T21:52:17;16.50;;;15.30;;
14874;SDS011;7529;48.170;17.138;2022-12-07T21:56:30;17.13;;;15.93;;
14874;SDS011;7529;48.170;17.138;2022-12-07T22:00:43;14.38;;;13.32;;
14874;SDS011;7529;48.170;17.138;2022-12-07T22:04:58;15.68;;;14.52;;
14874;SDS011;7529;48.170;17.138;2022-12-07T22:09:10;17.25;;;16.05;;
14874;SDS011;7529;48.170;17.138;2022-12-07T22:13:22;16.23;;;15.02;;
14874;SDS011;7529;48.170;17.138;2022-12-07T22:17:53;16.95;;;15.68;;
14874;SDS011;7529;48.170;17.138;2022-12-07T22:22:05;15.52;;;14.32;;
14874;SDS011;7529;48.170;17.138;2022-12-07T22:26:17;14.85;;;13.77;;
14874;SDS011;7529;48.170;17.138;2022-12-07T22:30:29;15.43;;;14.32;;
14874;SDS011;7529;48.170;17.138;2022-12-07T22:34:41;14.98;;;13.88;;
14874;SDS011;7529;48.170;17.138;2022-12-07T22:38:53;15.40;;;14.10;;
14874;SDS011;7529;48.170;17.138;2022-12-07T22:43:04;15.88;;;14.57;;
14874;SDS011;7529;48.170;17.138;2022-12-07T22:47:16;15.23;;;13.93;;
14874;SDS011;7529;48.170;17.138;2022-12-07T22:51:29;15.07;;;13.88;;
14874;SDS011;7529;48.170;17.138;2022-12-07T22:55:42;14.27;;;13.10;;
14874;SDS011;7529;48.170;17.138;2022-12-07T22:59:53;14.18;;;13.20;;
14874;SDS011;7529;48.170;17.138;2022-12-07T23:04:05;15.05;;;13.88;;
14874;SDS011;7529;48.170;17.138;2022-12-07T23:08:17;13.25;;;12.32;;
14874;SDS011;7529;48.170;17.138;2022-12-07T23:12:28;14.65;;;13.63;;
14874;SDS011;7529;48.170;17.138;2022-12-07T23:16:58;14.35;;;13.20;;
14874;SDS011;7529;48.170;17.138;2022-12-07T23:21:10;13.07;;;12.25;;
14874;SDS011;7529;48.170;17.138;2022-12-07T23:25:21;15.10;;;13.90;;
14874;SDS011;7529;48.170;17.138;2022-12-07T23:29:33;14.57;;;13.57;;
14874;SDS011;7529;48.170;17.138;2022-12-07T23:33:45;15.45;;;14.25;;
14874;SDS011;7529;48.170;17.138;2022-12-07T23:37:57;15.02;;;13.93;;
14874;SDS011;7529;48.170;17.138;2022-12-07T23:42:08;16.67;;;15.50;;
14874;SDS011;7529;48.170;17.138;2022-12-07T23:46:21;15.68;;;14.48;;
14874;SDS011;7529;48.170;17.138;2022-12-07T23:50:34;16.88;;;15.57;;
14874;SDS011;7529;48.170;17.138;2022-12-07T23:54:45;17.38;;;15.70;;
14874;SDS011;7529;48.170;17.138;2022-12-07T23:58:57;15.85;;;14.73;;
